createdAt,value
2019-02-17T00:02:05.387Z,11.33
2019-02-17T00:04:33.242Z,11.77
2019-02-17T00:07:01.234Z,11.83
2019-02-17T00:09:29.266Z,12.70
2019-02-17T00:11:57.243Z,15.40
2019-02-17T00:14:25.246Z,12.37
2019-02-17T00:16:53.611Z,11.57
2019-02-17T00:19:21.523Z,13.80
2019-02-17T00:21:49.906Z,10.70
2019-02-17T00:24:18.353Z,11.10
2019-02-17T00:26:46.234Z,11.80
2019-02-17T00:29:14.607Z,19.30
2019-02-17T00:31:42.882Z,15.67
2019-02-17T00:34:10.918Z,12.13
2019-02-17T00:36:38.875Z,12.37
2019-02-17T00:39:07.212Z,11.37
2019-02-17T00:41:35.589Z,9.93
2019-02-17T00:44:03.757Z,12.10
2019-02-17T00:46:31.623Z,10.03
2019-02-17T00:48:59.562Z,10.33
2019-02-17T00:51:27.446Z,11.63
2019-02-17T00:53:55.459Z,13.43
2019-02-17T00:56:23.372Z,13.60
2019-02-17T00:58:51.299Z,11.07
2019-02-17T01:01:19.280Z,10.87
2019-02-17T01:03:47.641Z,11.17
2019-02-17T01:06:15.577Z,7.83
2019-02-17T01:08:43.651Z,7.67
2019-02-17T01:11:12.170Z,9.37
2019-02-17T01:13:40.183Z,9.50
2019-02-17T01:16:08.122Z,6.67
2019-02-17T01:18:36.047Z,9.77
2019-02-17T01:21:04.280Z,9.00
2019-02-17T01:23:32.180Z,11.33
2019-02-17T01:26:00.441Z,8.97
2019-02-17T01:28:28.342Z,12.30
2019-02-17T01:30:56.287Z,6.70
2019-02-17T01:33:24.755Z,8.87
2019-02-17T01:35:53.023Z,9.57
2019-02-17T01:38:21.800Z,7.57
2019-02-17T01:40:49.892Z,10.40
2019-02-17T01:43:17.945Z,8.83
2019-02-17T01:45:46.327Z,7.63
2019-02-17T01:48:14.577Z,9.50
2019-02-17T01:50:42.784Z,8.00
2019-02-17T01:53:10.771Z,9.27
2019-02-17T01:55:38.787Z,11.20
2019-02-17T01:58:07.279Z,7.73
2019-02-17T02:00:35.620Z,8.37
2019-02-17T02:03:03.876Z,8.57
2019-02-17T02:05:31.839Z,7.03
2019-02-17T02:07:59.879Z,8.47
2019-02-17T02:10:28.303Z,9.10
2019-02-17T02:12:56.482Z,9.27
2019-02-17T02:15:24.714Z,7.87
2019-02-17T02:17:53.027Z,8.67
2019-02-17T02:20:21.215Z,7.60
2019-02-17T02:22:49.058Z,8.63
2019-02-17T02:25:17.354Z,8.10
2019-02-17T02:27:45.632Z,8.77
2019-02-17T02:30:13.951Z,6.27
2019-02-17T02:32:42.375Z,7.50
2019-02-17T02:35:10.325Z,8.27
2019-02-17T02:37:38.290Z,7.10
2019-02-17T02:40:06.371Z,8.23
2019-02-17T02:42:34.694Z,9.13
2019-02-17T02:45:03.243Z,8.53
2019-02-17T02:47:31.586Z,9.20
2019-02-17T02:49:59.556Z,10.10
2019-02-17T02:52:27.864Z,8.97
2019-02-17T02:54:55.831Z,7.10
2019-02-17T02:57:24.198Z,8.03
2019-02-17T02:59:52.763Z,8.87
2019-02-17T03:02:21.271Z,8.30
2019-02-17T03:04:49.241Z,6.17
2019-02-17T03:07:19.448Z,6.60
2019-02-17T03:09:47.422Z,8.53
2019-02-17T03:12:15.807Z,8.70
2019-02-17T03:14:44.090Z,6.93
2019-02-17T03:17:12.206Z,12.47
2019-02-17T03:19:40.533Z,8.50
2019-02-17T03:22:09.254Z,9.10
2019-02-17T03:24:37.675Z,6.57
2019-02-17T03:27:05.662Z,8.93
2019-02-17T03:29:34.009Z,7.33
2019-02-17T03:32:02.413Z,8.83
2019-02-17T03:34:30.806Z,7.40
2019-02-17T03:36:58.821Z,8.83
2019-02-17T03:39:26.906Z,8.13
2019-02-17T03:41:55.342Z,10.20
2019-02-17T03:44:23.802Z,11.30
2019-02-17T03:46:52.142Z,9.40
2019-02-17T03:49:20.563Z,7.63
2019-02-17T03:51:48.876Z,8.17
2019-02-17T03:54:16.835Z,10.53
2019-02-17T03:56:45.094Z,7.67
2019-02-17T03:59:13.422Z,7.93
2019-02-17T04:01:41.855Z,8.30
2019-02-17T04:04:09.815Z,9.73
2019-02-17T04:06:37.798Z,6.97
2019-02-17T04:09:07.379Z,9.27
2019-02-17T04:11:35.394Z,8.50
2019-02-17T04:14:03.338Z,7.73
2019-02-17T04:16:31.229Z,6.83
2019-02-17T04:18:59.302Z,8.03
2019-02-17T04:21:27.354Z,9.63
2019-02-17T04:23:55.296Z,8.03
2019-02-17T04:26:23.179Z,8.93
2019-02-17T04:28:51.023Z,9.17
2019-02-17T04:31:18.933Z,7.70
2019-02-17T04:33:46.914Z,8.20
2019-02-17T04:36:14.851Z,7.20
2019-02-17T04:38:42.837Z,8.73
2019-02-17T04:41:10.963Z,9.50
2019-02-17T04:43:38.923Z,6.70
2019-02-17T04:46:06.930Z,8.40
2019-02-17T04:48:34.889Z,9.93
2019-02-17T04:51:02.961Z,7.43
2019-02-17T04:53:30.852Z,9.03
2019-02-17T04:55:58.769Z,8.77
2019-02-17T04:58:26.704Z,9.20
2019-02-17T05:00:54.620Z,9.90
2019-02-17T05:03:22.678Z,9.17
2019-02-17T05:05:50.674Z,10.27
2019-02-17T05:08:18.632Z,8.33
2019-02-17T05:10:46.623Z,8.07
2019-02-17T05:13:14.511Z,8.63
2019-02-17T05:15:42.400Z,10.83
2019-02-17T05:18:10.437Z,8.83
2019-02-17T05:20:38.461Z,7.40
2019-02-17T05:23:06.479Z,7.73
2019-02-17T05:25:34.574Z,8.90
2019-02-17T05:28:02.471Z,10.40
2019-02-17T05:30:30.532Z,9.67
2019-02-17T05:32:58.501Z,8.70
2019-02-17T05:35:26.722Z,9.50
2019-02-17T05:37:54.628Z,8.57
2019-02-17T05:40:22.551Z,9.10
2019-02-17T05:42:50.447Z,11.73
2019-02-17T05:45:18.407Z,10.83
2019-02-17T05:47:46.403Z,10.43
2019-02-17T05:50:14.524Z,8.77
2019-02-17T05:52:42.376Z,8.57
2019-02-17T05:55:10.352Z,7.97
2019-02-17T05:57:38.413Z,9.20
2019-02-17T06:00:07.150Z,9.90
2019-02-17T06:02:35.074Z,9.00
2019-02-17T06:05:03.323Z,9.97
2019-02-17T06:07:31.326Z,8.83
2019-02-17T06:09:59.387Z,10.70
2019-02-17T06:12:27.451Z,9.50
2019-02-17T06:14:55.423Z,7.73
2019-02-17T06:17:23.375Z,9.10
2019-02-17T06:19:51.368Z,9.17
2019-02-17T06:22:19.279Z,9.20
2019-02-17T06:24:47.351Z,8.53
2019-02-17T06:27:15.386Z,13.20
2019-02-17T06:29:43.342Z,9.80
2019-02-17T06:32:11.299Z,11.97
2019-02-17T06:34:39.291Z,11.27
2019-02-17T06:37:07.795Z,9.83
2019-02-17T06:39:35.711Z,10.70
2019-02-17T06:42:03.777Z,10.07
2019-02-17T06:44:31.733Z,8.77
2019-02-17T06:47:02.088Z,10.30
2019-02-17T06:49:30.047Z,10.47
2019-02-17T06:51:58.117Z,11.17
2019-02-17T06:54:26.098Z,11.47
2019-02-17T06:56:59.923Z,11.40
2019-02-17T06:59:27.881Z,13.97
2019-02-17T07:01:55.749Z,13.50
2019-02-17T07:04:38.817Z,16.03
2019-02-17T07:07:07.667Z,15.80
2019-02-17T07:09:35.859Z,12.33
2019-02-17T07:12:03.920Z,14.90
2019-02-17T07:14:44.679Z,13.97
2019-02-17T07:17:12.629Z,14.03
2019-02-17T07:19:40.598Z,15.27
2019-02-17T07:22:09.137Z,12.43
2019-02-17T07:24:37.119Z,13.17
2019-02-17T07:27:05.121Z,12.57
2019-02-17T07:29:33.131Z,14.67
2019-02-17T07:32:01.026Z,15.20
2019-02-17T07:34:29.014Z,13.90
2019-02-17T07:36:56.861Z,44.40
2019-02-17T07:39:24.882Z,33.90
2019-02-17T07:41:52.818Z,30.80
2019-02-17T07:44:20.762Z,33.60
2019-02-17T07:46:48.903Z,37.57
2019-02-17T07:49:17.050Z,40.27
2019-02-17T07:51:45.028Z,35.33
2019-02-17T07:54:13.107Z,41.13
2019-02-17T07:56:41.086Z,45.40
2019-02-17T07:59:09.186Z,66.63
2019-02-17T08:01:44.931Z,55.57
2019-02-17T08:04:07.228Z,41.20
2019-02-17T08:06:35.226Z,37.23
2019-02-17T08:09:04.241Z,65.83
2019-02-17T08:11:32.539Z,69.83
2019-02-17T08:14:00.554Z,47.00
2019-02-17T08:16:28.542Z,46.27
2019-02-17T08:18:56.672Z,47.67
2019-02-17T08:21:24.555Z,54.63
2019-02-17T08:23:52.523Z,31.40
2019-02-17T08:26:20.489Z,22.13
2019-02-17T08:28:48.444Z,20.80
2019-02-17T08:31:16.390Z,17.17
2019-02-17T08:33:44.299Z,20.50
2019-02-17T08:36:12.298Z,66.17
2019-02-17T08:38:40.240Z,54.37
2019-02-17T08:41:08.181Z,40.00
2019-02-17T08:43:36.162Z,24.50
2019-02-17T08:46:04.230Z,22.60
2019-02-17T08:48:32.216Z,22.40
2019-02-17T08:51:00.230Z,19.97
2019-02-17T08:53:28.235Z,25.30
2019-02-17T08:55:56.228Z,25.03
2019-02-17T08:58:24.110Z,59.93
2019-02-17T09:00:52.041Z,42.00
2019-02-17T09:03:20.007Z,38.10
2019-02-17T09:05:47.991Z,38.10
2019-02-17T09:08:16.002Z,40.97
2019-02-17T09:10:43.911Z,33.87
2019-02-17T09:13:11.907Z,24.50
2019-02-17T09:15:40.442Z,26.03
2019-02-17T09:18:08.464Z,33.03
2019-02-17T09:20:36.407Z,34.03
2019-02-17T09:23:04.360Z,28.93
2019-02-17T09:25:35.574Z,20.23
2019-02-17T09:28:03.603Z,20.87
2019-02-17T09:30:31.875Z,21.43
2019-02-17T09:32:59.960Z,16.97
2019-02-17T09:35:27.971Z,17.73
2019-02-17T09:38:44.318Z,20.27
2019-02-17T09:41:10.143Z,21.17
2019-02-17T09:43:38.088Z,20.70
2019-02-17T09:46:06.039Z,22.17
2019-02-17T09:48:34.715Z,20.50
2019-02-17T09:51:02.722Z,22.70
2019-02-17T09:53:30.764Z,25.03
2019-02-17T09:55:59.781Z,27.43
2019-02-17T09:58:27.912Z,25.50
2019-02-17T10:00:55.830Z,27.33
2019-02-17T10:03:23.971Z,26.00
2019-02-17T10:05:52.032Z,21.47
2019-02-17T10:08:20.072Z,23.00
2019-02-17T10:10:48.319Z,36.43
2019-02-17T10:13:16.432Z,34.00
2019-02-17T10:15:44.798Z,20.93
2019-02-17T10:18:12.786Z,18.60
2019-02-17T10:20:40.727Z,18.00
2019-02-17T10:23:09.020Z,16.03
2019-02-17T10:25:37.036Z,16.67
2019-02-17T10:28:05.071Z,16.50
2019-02-17T10:30:33.417Z,16.37
2019-02-17T10:33:01.345Z,19.13
2019-02-17T10:35:29.462Z,15.83
2019-02-17T10:37:57.526Z,14.93
2019-02-17T10:40:25.546Z,15.43
2019-02-17T10:42:53.528Z,13.87
2019-02-17T10:45:21.841Z,18.50
2019-02-17T10:47:49.763Z,17.10
2019-02-17T10:50:17.768Z,14.10
2019-02-17T10:52:45.804Z,15.70
2019-02-17T10:55:13.750Z,15.03
2019-02-17T10:57:41.689Z,17.17
2019-02-17T11:00:12.114Z,15.37
2019-02-17T11:02:46.779Z,12.17
2019-02-17T11:05:09.968Z,13.93
2019-02-17T11:07:38.003Z,13.60
2019-02-17T11:10:06.480Z,15.83
2019-02-17T11:12:34.491Z,13.17
2019-02-17T11:15:29.098Z,14.73
2019-02-17T11:17:57.164Z,17.30
2019-02-17T11:20:25.121Z,16.20
2019-02-17T11:22:53.038Z,18.13
2019-02-17T11:25:20.995Z,16.53
2019-02-17T11:27:48.948Z,18.20
2019-02-17T11:30:17.143Z,15.00
2019-02-17T11:32:45.151Z,17.83
2019-02-17T11:35:13.428Z,17.57
2019-02-17T11:37:41.452Z,18.83
2019-02-17T11:40:10.224Z,19.20
2019-02-17T11:42:38.327Z,17.37
2019-02-17T11:45:08.167Z,20.57
2019-02-17T11:47:36.115Z,18.97
2019-02-17T11:50:04.682Z,20.40
2019-02-17T11:52:32.662Z,20.80
2019-02-17T11:55:00.687Z,24.13
2019-02-17T11:57:28.767Z,20.87
2019-02-17T11:59:56.697Z,23.40
2019-02-17T12:02:25.448Z,27.97
2019-02-17T12:04:53.467Z,24.60
2019-02-17T12:07:21.363Z,26.80
2019-02-17T12:09:49.311Z,23.40
2019-02-17T12:12:17.351Z,26.37
2019-02-17T12:15:02.067Z,23.63
2019-02-17T12:17:30.177Z,22.83
2019-02-17T12:20:10.639Z,21.30
2019-02-17T12:22:47.042Z,23.00
2019-02-17T12:25:29.175Z,22.03
2019-02-17T12:28:04.144Z,22.57
2019-02-17T12:30:32.049Z,27.13
2019-02-17T12:32:59.992Z,22.10
2019-02-17T12:35:27.953Z,20.97
2019-02-17T12:37:55.901Z,20.17
2019-02-17T12:40:23.911Z,21.63
2019-02-17T12:42:51.896Z,20.20
2019-02-17T12:45:19.989Z,23.30
2019-02-17T12:47:57.528Z,20.70
2019-02-17T12:50:17.644Z,22.30
2019-02-17T12:52:47.716Z,17.73
2019-02-17T12:55:15.351Z,18.80
2019-02-17T12:57:43.215Z,17.27
2019-02-17T13:00:14.991Z,19.63
2019-02-17T13:02:43.147Z,22.23
2019-02-17T13:05:11.174Z,20.03
2019-02-17T13:07:39.145Z,19.10
2019-02-17T13:10:08.123Z,19.33
2019-02-17T13:12:36.421Z,18.67
2019-02-17T13:15:39.273Z,15.03
2019-02-17T13:18:06.460Z,18.43
2019-02-17T13:20:34.444Z,17.93
2019-02-17T13:23:02.439Z,18.73
2019-02-17T13:25:30.618Z,19.27
2019-02-17T13:27:58.599Z,17.93
2019-02-17T13:30:26.933Z,19.00
2019-02-17T13:32:54.906Z,19.67
2019-02-17T13:35:22.893Z,19.70
2019-02-17T13:37:50.922Z,18.40
2019-02-17T13:40:18.895Z,19.87
2019-02-17T13:42:47.067Z,18.47
2019-02-17T13:45:15.133Z,17.23
2019-02-17T13:47:43.030Z,18.30
2019-02-17T13:50:11.761Z,20.50
2019-02-17T13:52:39.832Z,19.73
2019-02-17T13:55:08.404Z,16.77
2019-02-17T13:57:36.632Z,16.40
2019-02-17T14:00:06.690Z,17.10
2019-02-17T14:02:34.607Z,16.33
2019-02-17T14:05:02.642Z,15.50
2019-02-17T14:07:30.579Z,16.73
2019-02-17T14:09:58.510Z,18.73
2019-02-17T14:12:26.527Z,18.97
2019-02-17T14:15:35.485Z,16.47
2019-02-17T14:18:02.142Z,16.10
2019-02-17T14:20:30.511Z,17.97
2019-02-17T14:22:58.483Z,16.03
2019-02-17T14:25:26.753Z,15.13
2019-02-17T14:27:54.865Z,17.50
2019-02-17T14:30:22.888Z,16.00
2019-02-17T14:32:50.859Z,17.90
2019-02-17T14:35:18.819Z,18.07
2019-02-17T14:37:46.775Z,16.83
2019-02-17T14:40:14.885Z,18.53
2019-02-17T14:42:43.758Z,19.00
2019-02-17T14:45:12.026Z,19.27
2019-02-17T14:47:40.221Z,19.13
2019-02-17T14:50:08.654Z,19.93
2019-02-17T14:52:36.774Z,19.07
2019-02-17T14:55:04.894Z,15.10
2019-02-17T14:57:33.060Z,13.57
2019-02-17T15:00:01.158Z,16.50
2019-02-17T15:02:29.097Z,16.23
2019-02-17T15:04:57.030Z,16.20
2019-02-17T15:07:24.970Z,16.20
2019-02-17T15:09:52.927Z,15.57
2019-02-17T15:12:20.946Z,15.70
2019-02-17T15:15:16.394Z,20.13
2019-02-17T15:17:43.848Z,16.20
2019-02-17T15:20:12.170Z,15.97
2019-02-17T15:22:40.287Z,23.30
2019-02-17T15:25:09.359Z,23.10
2019-02-17T15:27:37.248Z,20.80
2019-02-17T15:30:06.289Z,20.47
2019-02-17T15:32:34.253Z,17.83
2019-02-17T15:35:02.851Z,20.17
2019-02-17T15:37:30.775Z,19.83
2019-02-17T15:39:58.992Z,18.60
2019-02-17T15:42:27.002Z,19.97
2019-02-17T15:44:55.220Z,22.77
2019-02-17T15:47:23.459Z,22.97
2019-02-17T15:49:51.414Z,20.80
2019-02-17T15:52:19.403Z,22.17
2019-02-17T15:54:47.409Z,21.97
2019-02-17T15:57:15.454Z,20.70
2019-02-17T15:59:44.162Z,22.57
2019-02-17T16:02:12.380Z,23.27
2019-02-17T16:04:41.092Z,20.57
2019-02-17T16:07:10.159Z,20.40
2019-02-17T16:09:38.795Z,22.87
2019-02-17T16:12:07.575Z,23.13
2019-02-17T16:14:53.018Z,23.07
2019-02-17T16:17:21.822Z,22.00
2019-02-17T16:19:50.606Z,23.50
2019-02-17T16:22:19.382Z,25.43
2019-02-17T16:24:48.208Z,31.03
2019-02-17T16:27:17.009Z,40.53
2019-02-17T16:29:45.873Z,38.87
2019-02-17T16:32:14.714Z,41.70
2019-02-17T16:34:43.491Z,44.27
2019-02-17T16:37:12.402Z,49.70
2019-02-17T16:39:41.227Z,41.93
2019-02-17T16:42:10.518Z,38.67
2019-02-17T16:44:39.225Z,49.30
2019-02-17T16:47:09.604Z,86.70
2019-02-17T16:49:39.239Z,65.27
2019-02-17T16:52:08.255Z,47.17
2019-02-17T16:54:37.006Z,44.03
2019-02-17T16:57:05.823Z,43.10
2019-02-17T16:59:34.605Z,41.97
2019-02-17T17:02:03.343Z,45.20
2019-02-17T17:04:32.150Z,44.20
2019-02-17T17:07:01.189Z,47.27
2019-02-17T17:09:29.982Z,55.80
2019-02-17T17:11:58.830Z,57.03
2019-02-17T17:14:41.571Z,64.93
2019-02-17T17:17:10.765Z,81.07
2019-02-17T17:19:41.366Z,65.87
2019-02-17T17:22:10.449Z,47.43
2019-02-17T17:24:42.290Z,42.93
2019-02-17T17:27:49.205Z,47.40
2019-02-17T17:30:17.152Z,46.10
2019-02-17T17:32:46.044Z,66.70
2019-02-17T17:35:14.829Z,117.80
2019-02-17T17:37:43.993Z,148.83
2019-02-17T17:40:12.900Z,156.60
2019-02-17T17:42:41.822Z,175.53
2019-02-17T17:45:12.047Z,163.90
2019-02-17T17:47:40.964Z,170.33
2019-02-17T17:50:11.276Z,177.80
2019-02-17T17:52:40.686Z,176.77
2019-02-17T17:55:10.702Z,170.47
2019-02-17T17:57:39.698Z,195.63
2019-02-17T18:00:10.607Z,192.67
2019-02-17T18:02:41.243Z,180.80
2019-02-17T18:05:10.480Z,159.23
2019-02-17T18:07:40.313Z,140.83
2019-02-17T18:10:11.534Z,115.73
2019-02-17T18:12:40.629Z,105.43
2019-02-17T18:15:40.347Z,123.57
2019-02-17T18:18:09.040Z,134.27
2019-02-17T18:20:37.922Z,147.03
2019-02-17T18:23:06.907Z,150.07
2019-02-17T18:25:36.366Z,144.27
2019-02-17T18:28:05.283Z,157.13
2019-02-17T18:30:35.297Z,173.93
2019-02-17T18:33:04.055Z,195.40
2019-02-17T18:35:35.120Z,181.33
2019-02-17T18:38:03.340Z,161.90
2019-02-17T18:40:32.089Z,147.50
2019-02-17T18:43:00.843Z,143.77
2019-02-17T18:45:30.138Z,132.53
2019-02-17T18:47:59.583Z,130.77
2019-02-17T18:50:29.112Z,117.83
2019-02-17T18:52:58.587Z,108.47
2019-02-17T18:55:28.178Z,92.83
2019-02-17T18:57:57.183Z,75.20
2019-02-17T19:00:26.455Z,93.73
2019-02-17T19:02:55.296Z,84.30
2019-02-17T19:05:32.046Z,85.17
2019-02-17T19:07:55.636Z,89.60
2019-02-17T19:10:24.447Z,110.20
2019-02-17T19:12:53.887Z,99.80
2019-02-17T19:15:53.688Z,81.73
2019-02-17T19:18:22.231Z,75.53
2019-02-17T19:20:51.030Z,63.70
2019-02-17T19:23:19.775Z,53.93
2019-02-17T19:25:48.459Z,48.07
2019-02-17T19:30:40.773Z,53.67
2019-02-17T19:33:09.433Z,50.27
2019-02-17T19:35:41.942Z,48.57
2019-02-17T19:38:08.678Z,40.70
2019-02-17T19:40:37.423Z,42.60
2019-02-17T19:43:06.139Z,45.93
2019-02-17T19:45:34.862Z,44.90
2019-02-17T19:48:06.563Z,43.87
2019-02-17T19:50:35.307Z,60.23
2019-02-17T19:53:04.143Z,57.60
2019-02-17T19:55:32.971Z,45.47
2019-02-17T19:58:01.785Z,44.07
2019-02-17T20:00:30.955Z,42.20
2019-02-17T20:03:18.893Z,41.20
2019-02-17T20:05:52.347Z,39.57
2019-02-17T20:08:21.494Z,41.63
2019-02-17T20:10:50.242Z,42.73
2019-02-17T20:13:18.947Z,38.80
2019-02-17T20:16:08.378Z,36.43
2019-02-17T20:18:37.061Z,40.03
2019-02-17T20:21:05.749Z,39.87
2019-02-17T20:23:35.084Z,39.93
2019-02-17T20:26:03.814Z,37.97
2019-02-17T20:28:43.091Z,40.40
2019-02-17T20:31:03.454Z,41.07
2019-02-17T20:33:31.966Z,46.80
2019-02-17T20:36:03.064Z,56.13
2019-02-17T20:38:31.186Z,63.40
2019-02-17T20:40:59.760Z,55.23
2019-02-17T20:43:28.308Z,49.63
2019-02-17T20:45:58.345Z,47.00
2019-02-17T20:48:26.829Z,42.93
2019-02-17T20:50:55.059Z,40.70
2019-02-17T20:53:23.367Z,35.33
2019-02-17T20:55:51.877Z,39.10
2019-02-17T20:58:20.383Z,33.83
2019-02-17T21:00:48.726Z,35.00
2019-02-17T21:03:17.027Z,34.70
2019-02-17T21:05:44.955Z,36.97
2019-02-17T21:08:13.063Z,37.00
2019-02-17T21:10:41.082Z,34.20
2019-02-17T21:13:08.952Z,37.10
2019-02-17T21:16:13.081Z,33.20
2019-02-17T21:18:39.894Z,34.77
2019-02-17T21:21:08.001Z,33.60
2019-02-17T21:23:35.970Z,29.83
2019-02-17T21:26:34.655Z,33.67
2019-02-17T21:29:01.793Z,33.30
2019-02-17T21:31:29.780Z,34.53
2019-02-17T21:33:57.841Z,30.10
2019-02-17T21:36:26.370Z,27.63
2019-02-17T21:38:54.358Z,27.03
2019-02-17T21:41:22.452Z,26.03
2019-02-17T21:43:50.419Z,28.20
2019-02-17T21:46:18.314Z,32.33
2019-02-17T21:48:46.210Z,27.60
2019-02-17T21:51:14.221Z,27.43
2019-02-17T21:53:42.159Z,27.27
2019-02-17T21:56:10.111Z,27.37
2019-02-17T21:58:38.105Z,27.23
2019-02-17T22:01:05.936Z,29.60
2019-02-17T22:03:33.850Z,27.07
2019-02-17T22:06:01.766Z,26.80
2019-02-17T22:08:29.727Z,36.27
2019-02-17T22:10:57.726Z,36.50
2019-02-17T22:13:25.543Z,37.30
2019-02-17T22:16:33.099Z,32.20
2019-02-17T22:18:59.491Z,28.40
2019-02-17T22:21:27.428Z,29.17
2019-02-17T22:23:55.329Z,30.20
2019-02-17T22:26:23.353Z,34.27
2019-02-17T22:28:51.352Z,31.17
2019-02-17T22:31:19.298Z,27.30
2019-02-17T22:33:47.247Z,27.03
2019-02-17T22:36:15.117Z,25.07
2019-02-17T22:38:43.121Z,26.77
2019-02-17T22:41:10.991Z,24.97
2019-02-17T22:43:38.890Z,25.70
2019-02-17T22:46:07.104Z,25.50
2019-02-17T22:48:35.044Z,25.87
2019-02-17T22:51:02.944Z,24.97
2019-02-17T22:53:30.821Z,28.00
2019-02-17T22:55:58.803Z,25.37
2019-02-17T22:58:26.878Z,26.93
2019-02-17T23:01:06.269Z,24.73
2019-02-17T23:03:34.218Z,24.17
2019-02-17T23:06:02.156Z,27.33
2019-02-17T23:08:29.949Z,21.60
2019-02-17T23:10:58.025Z,20.93
2019-02-17T23:13:26.374Z,23.63
2019-02-17T23:15:54.314Z,23.63
2019-02-17T23:18:22.262Z,21.40
2019-02-17T23:20:50.254Z,25.20
2019-02-17T23:23:18.085Z,21.47
2019-02-17T23:25:46.025Z,23.70
2019-02-17T23:28:13.910Z,30.63
2019-02-17T23:30:41.879Z,26.73
2019-02-17T23:33:09.831Z,26.20
2019-02-17T23:35:37.870Z,25.77
2019-02-17T23:38:05.798Z,21.30
2019-02-17T23:40:33.731Z,21.93
2019-02-17T23:43:01.696Z,22.43
2019-02-17T23:45:29.610Z,21.27
2019-02-17T23:47:57.418Z,22.17
2019-02-17T23:50:25.434Z,22.73
2019-02-17T23:52:54.645Z,22.63
2019-02-17T23:55:22.753Z,23.50
2019-02-17T23:57:50.751Z,23.03
